Boden, Sweden

7:16 PM CEST on May 28, 2017 (GMT +0200)
Kusan Boden | | Change Station

Elev 6 ft 65.85 °N, 21.53 °E | Updated 22 seconds ago

Overcast
Overcast
48.4 °F
Feels Like 48 °F
N
2.7
Wind Variable Wind from ENE
Gusts 16.8 mph

Today
High -- | Low -- °F
--% Chance of Precip.
Yesterday
High -- | Low -- °F
Precip. -- in
Pressure 29.62 in
Visibility 6.2 miles
Clouds Few 900 ft
Scattered Clouds 1300 ft
Mostly Cloudy 1900 ft
Overcast 5600 ft
Windchill 48 °F
Dew Point 42 °F
Humidity 79%
Rainfall 0.69 in
Snow Depth Not available.
2:06 AM 10:57 PM
Waxing Crescent, 12% visible
METAR ESPA 281650Z 34011KT 9999 FEW009 SCT013 BKN019 OVC056 08/06 Q1003
Pressure 29.62 in
Visibility 6.2 miles
Clouds Few 900 ft
Scattered Clouds 1300 ft
Mostly Cloudy 1900 ft
Overcast 5600 ft
Windchill 48 °F
Dew Point 42 °F
Humidity 79%
Rainfall 0.69 in
Snow Depth Not available.
2:06 AM 10:57 PM
Waxing Crescent, 12% visible
METAR ESPA 281650Z 34011KT 9999 FEW009 SCT013 BKN019 OVC056 08/06 Q1003

Get Severe Weather Alerts

Thanks for signing up!

Be on the lookout for a verification email in your inbox.

You'll start receiving the daily forecast at 6 AM.

×

10-Day Weather Forecast

×

Almanac

Astronomy

May. 28, 2017 Rise Set
Actual Time
Civil Twilight
Nautical Twilight
Astronomical Twilight
Moon
Length of Visible Light
Length of Day
Tomorrow will be .
, % of the Moon is Illuminated

Today's Extremes

Country Highs Country Lows

Community

WunderPhotos

Category 6

Welcome to Category 6. This is the collective home for Weather Underground's featured writeups by Dr. Jeff Masters (right), Bob Henson (left), Chris Burt, and other regular contributors.

Nearby

Air Quality

  Air Quality AQ Index Pollutant
Not available.

Snow Depth

Station Depth Elevation

Earthquake Activity

City Distance Mag. Time & Date
Minimum magnitude displayed is 2.5.

Coastal Water Temperatures

Place Temperature

Stations

Nearby Weather Stations

Station Location Temp. Windchill Dew Point Humidity Wind Precip. Elev Updated Type